Time,TemperatureF,DewpointF,PressureIn,WindDirection,WindDirectionDegrees,WindSpeedMPH,WindSpeedGustMPH,Humidity,HourlyPrecipIn,Conditions,Clouds,dailyrainin,SoftwareType,DateUTC
2013-09-29 00:08:00,48.2,42.0,29.91,SW,236,1.0,2.0,78,0.00,,,0.00,weatherlink.com 1.10,2013-09-29 05:08:00,
2013-09-29 00:23:00,47.6,41.0,29.91,SW,236,2.0,2.0,79,0.00,,,0.00,weatherlink.com 1.10,2013-09-29 05:23:00,
2013-09-29 00:38:00,47.6,42.0,29.91,SW,232,1.0,2.0,80,0.00,,,0.00,weatherlink.com 1.10,2013-09-29 05:38:00,
2013-09-29 00:53:00,48.0,42.0,29.91,SW,236,3.0,3.0,79,0.00,,,0.00,weatherlink.com 1.10,2013-09-29 05:53:00,
2013-09-29 01:08:00,48.0,42.0,29.91,WSW,248,0.0,2.0,79,0.00,,,0.00,weatherlink.com 1.10,2013-09-29 06:08:00,
2013-09-29 01:23:00,48.3,42.0,29.91,SW,228,0.0,1.0,79,0.00,,,0.00,weatherlink.com 1.10,2013-09-29 06:23:00,
2013-09-29 01:38:00,48.4,42.0,29.91,SW,228,0.0,2.0,78,0.00,,,0.00,weatherlink.com 1.10,2013-09-29 06:38:00,
2013-09-29 01:53:00,48.4,42.0,29.91,WSW,242,0.0,2.0,78,0.00,,,0.00,weatherlink.com 1.10,2013-09-29 06:53:00,
2013-09-29 02:08:00,48.1,42.0,29.91,SW,226,0.0,2.0,79,0.00,,,0.00,weatherlink.com 1.10,2013-09-29 07:08:00,
2013-09-29 02:23:00,48.1,42.0,29.91,SSW,212,2.0,3.0,78,0.00,,,0.00,weatherlink.com 1.10,2013-09-29 07:23:00,
2013-09-29 02:38:00,48.0,42.0,29.91,WSW,242,0.0,3.0,79,0.00,,,0.00,weatherlink.com 1.10,2013-09-29 07:38:00,
2013-09-29 02:53:00,48.2,42.0,29.91,SW,215,0.0,2.0,78,0.00,,,0.00,weatherlink.com 1.10,2013-09-29 07:53:00,
2013-09-29 03:08:00,48.2,41.0,29.91,SW,229,0.0,2.0,77,0.00,,,0.00,weatherlink.com 1.10,2013-09-29 08:08:00,
2013-09-29 03:23:00,46.9,41.0,29.91,SW,217,1.0,2.0,80,0.00,,,0.00,weatherlink.com 1.10,2013-09-29 08:23:00,
2013-09-29 03:38:00,45.8,41.0,29.91,SW,233,0.0,2.0,82,0.00,,,0.00,weatherlink.com 1.10,2013-09-29 08:38:00,
2013-09-29 03:53:00,45.5,40.0,29.91,SSW,211,1.0,2.0,82,0.00,,,0.00,weatherlink.com 1.10,2013-09-29 08:53:00,
2013-09-29 04:08:00,45.6,40.0,29.91,SW,214,0.0,2.0,82,0.00,,,0.00,weatherlink.com 1.10,2013-09-29 09:08:00,
2013-09-29 04:23:00,46.0,41.0,29.91,SW,221,1.0,3.0,81,0.00,,,0.00,weatherlink.com 1.10,2013-09-29 09:23:00,
2013-09-29 04:38:00,46.8,41.0,29.91,SSW,195,0.0,3.0,79,0.00,,,0.00,weatherlink.com 1.10,2013-09-29 09:38:00,
2013-09-29 04:53:00,46.2,40.0,29.91,SW,215,0.0,1.0,80,0.00,,,0.00,weatherlink.com 1.10,2013-09-29 09:53:00,
2013-09-29 05:08:00,46.1,40.0,29.91,SSW,211,1.0,1.0,80,0.00,,,0.00,weatherlink.com 1.10,2013-09-29 10:08:00,
2013-09-29 05:23:00,46.4,40.0,29.91,WSW,239,0.0,2.0,79,0.00,,,0.00,weatherlink.com 1.10,2013-09-29 10:23:00,
2013-09-29 05:38:00,46.4,40.0,29.91,SW,224,0.0,3.0,79,0.00,,,0.00,weatherlink.com 1.10,2013-09-29 10:38:00,
2013-09-29 05:53:00,46.6,40.0,29.91,SW,229,1.0,5.0,79,0.00,,,0.00,weatherlink.com 1.10,2013-09-29 10:53:00,
2013-09-29 06:08:00,46.1,40.0,29.92,SSW,207,3.0,4.0,80,0.00,,,0.00,weatherlink.com 1.10,2013-09-29 11:08:00,
2013-09-29 06:23:00,45.9,40.0,29.91,WSW,238,1.0,4.0,80,0.00,,,0.00,weatherlink.com 1.10,2013-09-29 11:23:00,
2013-09-29 06:38:00,46.2,40.0,29.91,SW,236,0.0,4.0,79,0.00,,,0.00,weatherlink.com 1.10,2013-09-29 11:38:00,
2013-09-29 06:53:00,46.5,40.0,29.91,WSW,249,0.0,3.0,78,0.00,,,0.00,weatherlink.com 1.10,2013-09-29 11:53:00,
2013-09-29 07:08:00,46.3,40.0,29.91,SW,222,0.0,2.0,78,0.00,,,0.00,weatherlink.com 1.10,2013-09-29 12:08:00,
2013-09-29 07:23:00,45.8,40.0,29.91,SW,214,1.0,1.0,79,0.00,,,0.00,weatherlink.com 1.10,2013-09-29 12:23:00,
2013-09-29 07:38:00,45.3,40.0,29.91,South,174,0.0,1.0,80,0.00,,,0.00,weatherlink.com 1.10,2013-09-29 12:38:00,
2013-09-29 07:53:00,45.2,40.0,29.91,SSW,211,0.0,0.0,81,0.00,,,0.00,weatherlink.com 1.10,2013-09-29 12:53:00,
2013-09-29 08:08:00,45.6,40.0,29.91,South,176,0.0,1.0,81,0.00,,,0.00,weatherlink.com 1.10,2013-09-29 13:08:00,
2013-09-29 08:23:00,46.3,40.0,29.90,SSE,165,0.0,2.0,80,0.00,,,0.00,weatherlink.com 1.10,2013-09-29 13:23:00,
2013-09-29 08:39:00,47.4,41.0,29.90,South,178,0.0,2.0,78,0.00,,,0.00,weatherlink.com 1.10,2013-09-29 13:39:00,
2013-09-29 08:54:00,48.7,41.0,29.90,SSW,197,0.0,4.0,76,0.00,,,0.00,weatherlink.com 1.10,2013-09-29 13:54:00,
2013-09-29 09:09:00,50.4,42.0,29.90,WSW,249,1.0,2.0,73,0.00,,,0.00,weatherlink.com 1.10,2013-09-29 14:09:00,
2013-09-29 09:24:00,52.2,42.0,29.90,South,180,1.0,3.0,69,0.00,,,0.00,weatherlink.com 1.10,2013-09-29 14:24:00,
2013-09-29 09:39:00,54.1,42.0,29.88,SW,215,2.0,3.0,65,0.00,,,0.00,weatherlink.com 1.10,2013-09-29 14:39:00,
2013-09-29 09:54:00,54.2,44.0,29.89,ESE,110,0.0,3.0,68,0.00,,,0.00,weatherlink.com 1.10,2013-09-29 14:54:00,
2013-09-29 10:09:00,55.3,44.0,29.88,South,173,0.0,4.0,66,0.00,,,0.00,weatherlink.com 1.10,2013-09-29 15:09:00,
2013-09-29 10:24:00,56.8,45.0,29.88,SSW,212,1.0,4.0,64,0.00,,,0.00,weatherlink.com 1.10,2013-09-29 15:24:00,
2013-09-29 10:39:00,58.3,44.0,29.88,ESE,113,1.0,4.0,60,0.00,,,0.00,weatherlink.com 1.10,2013-09-29 15:39:00,
2013-09-29 10:54:00,59.7,45.0,29.87,SSW,197,1.0,4.0,58,0.00,,,0.00,weatherlink.com 1.10,2013-09-29 15:54:00,
2013-09-29 11:09:00,61.0,46.0,29.87,SSW,204,0.0,5.0,58,0.00,,,0.00,weatherlink.com 1.10,2013-09-29 16:09:00,
2013-09-29 11:24:00,62.4,47.0,29.86,SSE,155,2.0,8.0,57,0.00,,,0.00,weatherlink.com 1.10,2013-09-29 16:24:00,
2013-09-29 11:39:00,63.8,46.0,29.85,SSW,198,3.0,5.0,53,0.00,,,0.00,weatherlink.com 1.10,2013-09-29 16:39:00,
2013-09-29 11:54:00,65.0,47.0,29.84,WSW,240,0.0,4.0,52,0.00,,,0.00,weatherlink.com 1.10,2013-09-29 16:54:00,
2013-09-29 12:09:00,66.7,46.0,29.84,SSW,210,2.0,6.0,48,0.00,,,0.00,weatherlink.com 1.10,2013-09-29 17:09:00,
2013-09-29 12:24:00,67.4,47.0,29.83,SE,129,2.0,6.0,49,0.00,,,0.00,weatherlink.com 1.10,2013-09-29 17:24:00,
2013-09-29 12:39:00,67.4,48.0,29.83,South,174,1.0,5.0,51,0.00,,,0.00,weatherlink.com 1.10,2013-09-29 17:39:00,
2013-09-29 12:55:00,67.7,48.0,29.82,South,186,0.0,3.0,50,0.00,,,0.00,weatherlink.com 1.10,2013-09-29 17:55:00,
2013-09-29 13:10:00,69.3,49.0,29.81,SSW,203,2.0,4.0,49,0.00,,,0.00,weatherlink.com 1.10,2013-09-29 18:10:00,
2013-09-29 13:25:00,70.7,48.0,29.80,SSW,200,2.0,5.0,44,0.00,,,0.00,weatherlink.com 1.10,2013-09-29 18:25:00,
2013-09-29 13:40:00,71.2,49.0,29.80,SW,222,0.0,4.0,45,0.00,,,0.00,weatherlink.com 1.10,2013-09-29 18:40:00,
2013-09-29 13:55:00,70.8,51.0,29.79,South,174,0.0,5.0,49,0.00,,,0.00,weatherlink.com 1.10,2013-09-29 18:55:00,
2013-09-29 14:10:00,70.6,51.0,29.77,SSW,194,1.0,4.0,50,0.00,,,0.00,weatherlink.com 1.10,2013-09-29 19:10:00,
2013-09-29 14:25:00,71.6,51.0,29.77,East,100,2.0,3.0,49,0.00,,,0.00,weatherlink.com 1.10,2013-09-29 19:25:00,
2013-09-29 14:40:00,71.7,50.0,29.77,South,172,1.0,4.0,47,0.00,,,0.00,weatherlink.com 1.10,2013-09-29 19:40:00,
2013-09-29 14:55:00,72.1,50.0,29.76,SSW,205,1.0,4.0,46,0.00,,,0.00,weatherlink.com 1.10,2013-09-29 19:55:00,
2013-09-29 15:10:00,72.8,51.0,29.75,SSW,198,1.0,4.0,46,0.00,,,0.00,weatherlink.com 1.10,2013-09-29 20:10:00,
2013-09-29 15:25:00,73.7,51.0,29.75,ENE,69,0.0,4.0,45,0.00,,,0.00,weatherlink.com 1.10,2013-09-29 20:25:00,
2013-09-29 15:40:00,74.6,44.0,29.74,South,188,2.0,6.0,33,0.00,,,0.00,weatherlink.com 1.10,2013-09-29 20:40:00,
2013-09-29 15:55:00,75.5,43.0,29.73,South,181,3.0,9.0,31,0.00,,,0.00,weatherlink.com 1.10,2013-09-29 20:55:00,
2013-09-29 16:10:00,76.1,42.0,29.72,SSW,207,4.0,6.0,29,0.00,,,0.00,weatherlink.com 1.10,2013-09-29 21:10:00,
2013-09-29 16:25:00,76.4,43.0,29.72,SSW,198,3.0,6.0,30,0.00,,,0.00,weatherlink.com 1.10,2013-09-29 21:25:00,
2013-09-29 16:40:00,76.4,42.0,29.71,East,98,0.0,8.0,29,0.00,,,0.00,weatherlink.com 1.10,2013-09-29 21:40:00,
2013-09-29 16:55:00,76.1,41.0,29.71,SSE,149,1.0,10.0,28,0.00,,,0.00,weatherlink.com 1.10,2013-09-29 21:55:00,
2013-09-29 17:10:00,75.8,45.0,29.71,ESE,106,1.0,7.0,34,0.00,,,0.00,weatherlink.com 1.10,2013-09-29 22:10:00,
2013-09-29 17:25:00,74.3,46.0,29.70,ESE,108,1.0,5.0,36,0.00,,,0.00,weatherlink.com 1.10,2013-09-29 22:25:00,
2013-09-29 17:40:00,72.9,48.0,29.71,SSE,167,0.0,3.0,41,0.00,,,0.00,weatherlink.com 1.10,2013-09-29 22:40:00,
2013-09-29 17:55:00,71.8,48.0,29.71,SSE,159,0.0,2.0,43,0.00,,,0.00,weatherlink.com 1.10,2013-09-29 22:55:00,
2013-09-29 18:10:00,70.7,50.0,29.71,South,169,0.0,2.0,48,0.00,,,0.00,weatherlink.com 1.10,2013-09-29 23:10:00,
2013-09-29 18:25:00,69.3,50.0,29.70,South,184,0.0,1.0,50,0.00,,,0.00,weatherlink.com 1.10,2013-09-29 23:25:00,
2013-09-29 18:40:00,67.7,50.0,29.69,ESE,114,0.0,1.0,53,0.00,,,0.00,weatherlink.com 1.10,2013-09-29 23:40:00,
2013-09-29 18:55:00,67.0,49.0,29.69,ESE,110,0.0,1.0,53,0.00,,,0.00,weatherlink.com 1.10,2013-09-29 23:55:00,
2013-09-29 19:10:00,66.4,49.0,29.69,SE,128,0.0,1.0,53,0.00,,,0.00,weatherlink.com 1.10,2013-09-30 00:10:00,
2013-09-29 19:25:00,65.9,48.0,29.69,SSE,163,0.0,1.0,53,0.00,,,0.00,weatherlink.com 1.10,2013-09-30 00:25:00,
2013-09-29 19:40:00,65.1,48.0,29.69,SE,142,0.0,1.0,55,0.00,,,0.00,weatherlink.com 1.10,2013-09-30 00:40:00,
2013-09-29 19:55:00,64.3,48.0,29.68,ESE,120,0.0,1.0,56,0.00,,,0.00,weatherlink.com 1.10,2013-09-30 00:55:00,
2013-09-29 20:10:00,64.1,48.0,29.68,ESE,114,0.0,1.0,56,0.00,,,0.00,weatherlink.com 1.10,2013-09-30 01:10:00,
2013-09-29 20:25:00,63.7,48.0,29.67,ESE,103,0.0,1.0,58,0.00,,,0.00,weatherlink.com 1.10,2013-09-30 01:25:00,
2013-09-29 20:40:00,62.8,49.0,29.68,ESE,108,0.0,0.0,60,0.00,,,0.00,weatherlink.com 1.10,2013-09-30 01:40:00,
2013-09-29 20:55:00,62.2,48.0,29.67,ESE,119,0.0,0.0,61,0.00,,,0.00,weatherlink.com 1.10,2013-09-30 01:55:00,
2013-09-29 21:10:00,61.9,49.0,29.67,ESE,110,1.0,1.0,63,0.00,,,0.00,weatherlink.com 1.10,2013-09-30 02:10:00,
2013-09-29 21:26:00,61.5,49.0,29.66,ESE,106,0.0,1.0,63,0.00,,,0.00,weatherlink.com 1.10,2013-09-30 02:26:00,
2013-09-29 21:41:00,61.3,48.0,29.66,SE,129,0.0,1.0,61,0.00,,,0.00,weatherlink.com 1.10,2013-09-30 02:41:00,
2013-09-29 21:56:00,61.8,48.0,29.65,SE,137,0.0,2.0,60,0.00,,,0.00,weatherlink.com 1.10,2013-09-30 02:56:00,
2013-09-29 22:11:00,61.7,47.0,29.64,SE,145,1.0,1.0,60,0.00,,,0.00,weatherlink.com 1.10,2013-09-30 03:11:00,
2013-09-29 22:26:00,61.8,48.0,29.63,ESE,111,1.0,3.0,60,0.00,,,0.00,weatherlink.com 1.10,2013-09-30 03:26:00,
2013-09-29 22:56:00,61.9,47.0,29.62,South,191,1.0,4.0,59,0.00,,,0.00,weatherlink.com 1.10,2013-09-30 03:56:00,
2013-09-29 23:11:00,61.8,47.0,29.62,South,170,2.0,3.0,58,0.00,,,0.00,weatherlink.com 1.10,2013-09-30 04:11:00,
2013-09-29 23:26:00,62.1,47.0,29.61,SSE,162,0.0,4.0,58,0.00,,,0.00,weatherlink.com 1.10,2013-09-30 04:26:00,
2013-09-29 23:41:00,61.5,47.0,29.61,SSE,153,1.0,3.0,59,0.00,,,0.00,weatherlink.com 1.10,2013-09-30 04:41:00,
2013-09-29 23:56:00,61.7,47.0,29.60,South,184,1.0,5.0,59,0.00,,,0.00,weatherlink.com 1.10,2013-09-30 04:56:00,